Etusivu
METAR-TAF:

METAR-TAF

Lentoasemat :

Vientiane, Laos

Leveyspiiri: 17-57N, Pituuspiiri: 102-34E, korkeus merenpinnasta: 171 m

Tämänhetkinen sää

Tämä raportti tehtiin 11 minuuttia sitten, kello 14.30 UTC
Tuuli 2 kn pohjoisesta
Lämpötila 24°C
Kosteus 94%
Ilmanpaine 1017 hPa
Näkyvyys: 3000 m
Hajonneita pilviä 4000 ft:n korkeudessa
Hajanaisia pilviä 8300 ft:n korkeudessa
utua

METAR: VLVT 131430Z 36002KT 3000 BR BKN040 SCT083 24/23 Q1017 NOSIG

Aika: 21:41 (14:41 UTC)

Sääennuste

Tämä raportti tehtiin 3 tuntia ja 41 minuuttia sitten, kello 11.00 UTC
Ennuste voimassa 13. päivästä klo 12 UTC - 14. päivään klo 12 UTC
Tuuli 6 kn idästä/koillisesta
Näkyvyys: 5000 m
Muutamia pilviä 2000 ft:n korkeudessa
Hajonneita pilviä 4000 ft:n korkeudessa
Hajanaisia pilviä 9300 ft:n korkeudessa
utua

TAF: VLVT 131100Z 1312/1412 06006KT 5000 BR FEW020 BKN040 SCT093

Säähavainnot ja -ennusteet yli 4000 lentoasemalta (METAR- ja TAF-raportit).

Käytössä olevat sääasemat on merkitty karttaan keltaisilla ja punaisilla pisteillä.

Aseta hiiri pisteen päälle nähdäksesi sääaseman nimen.

Klikkaa sitten nähdäksesi säähavainnot ja -ennusteet.

Kartan vaihtaminen: klikkaa mustalla rastilla varustettuja vihreitä pisteitä, niin voit zoomata sisään; viivalla varustettua vihreää pistettä, niin voit zoomata ulos tai vihreitä nuolia, niin pääset viereisille kartoille.


METAR-TAF: